sensor_id;sensor_type;location;lat;lon;timestamp;temperature;humidity
50560;DHT22;36510;52.610;13.468;2022-11-04T00:04:49;11.30;35.60
50560;DHT22;36510;52.610;13.468;2022-11-04T00:09:40;11.30;35.70
50560;DHT22;36510;52.610;13.468;2022-11-04T00:14:31;11.30;35.60
50560;DHT22;36510;52.610;13.468;2022-11-04T00:19:22;11.30;35.50
50560;DHT22;36510;52.610;13.468;2022-11-04T00:24:13;11.30;35.70
50560;DHT22;36510;52.610;13.468;2022-11-04T00:29:39;11.40;35.40
50560;DHT22;36510;52.610;13.468;2022-11-04T00:34:29;11.30;35.70
50560;DHT22;36510;52.610;13.468;2022-11-04T00:39:20;11.30;35.60
50560;DHT22;36510;52.610;13.468;2022-11-04T00:44:10;11.20;35.90
50560;DHT22;36510;52.610;13.468;2022-11-04T00:49:01;11.10;36.00
50560;DHT22;36510;52.610;13.468;2022-11-04T00:53:52;11.10;36.30
50560;DHT22;36510;52.610;13.468;2022-11-04T00:58:42;11.00;37.10
50560;DHT22;36510;52.610;13.468;2022-11-04T01:03:33;10.80;38.40
50560;DHT22;36510;52.610;13.468;2022-11-04T01:08:23;10.70;39.80
50560;DHT22;36510;52.610;13.468;2022-11-04T01:13:14;10.50;41.00
50560;DHT22;36510;52.610;13.468;2022-11-04T01:18:05;10.60;41.50
50560;DHT22;36510;52.610;13.468;2022-11-04T01:22:55;10.60;41.00
50560;DHT22;36510;52.610;13.468;2022-11-04T01:27:46;10.70;40.50
50560;DHT22;36510;52.610;13.468;2022-11-04T01:32:36;10.80;40.00
50560;DHT22;36510;52.610;13.468;2022-11-04T01:37:27;10.80;40.30
50560;DHT22;36510;52.610;13.468;2022-11-04T01:42:20;10.70;40.10
50560;DHT22;36510;52.610;13.468;2022-11-04T01:47:25;10.70;40.90
50560;DHT22;36510;52.610;13.468;2022-11-04T01:52:21;10.70;40.90
50560;DHT22;36510;52.610;13.468;2022-11-04T01:57:17;10.60;41.00
50560;DHT22;36510;52.610;13.468;2022-11-04T02:02:08;10.70;40.90
50560;DHT22;36510;52.610;13.468;2022-11-04T02:07:01;10.60;41.60
50560;DHT22;36510;52.610;13.468;2022-11-04T02:11:53;10.40;43.30
50560;DHT22;36510;52.610;13.468;2022-11-04T02:33:16;10.70;42.90
50560;DHT22;36510;52.610;13.468;2022-11-04T02:38:09;10.70;43.10
50560;DHT22;36510;52.610;13.468;2022-11-04T02:43:15;10.70;43.00
50560;DHT22;36510;52.610;13.468;2022-11-04T02:48:23;10.80;42.60
50560;DHT22;36510;52.610;13.468;2022-11-04T02:53:22;10.80;41.90
50560;DHT22;36510;52.610;13.468;2022-11-04T02:58:26;10.80;41.70
50560;DHT22;36510;52.610;13.468;2022-11-04T03:03:22;10.90;41.20
50560;DHT22;36510;52.610;13.468;2022-11-04T03:08:22;10.90;41.40
50560;DHT22;36510;52.610;13.468;2022-11-04T03:13:25;10.80;41.10
50560;DHT22;36510;52.610;13.468;2022-11-04T03:19:07;10.90;40.70
50560;DHT22;36510;52.610;13.468;2022-11-04T03:24:02;10.80;40.60
50560;DHT22;36510;52.610;13.468;2022-11-04T03:29:24;10.80;40.80
50560;DHT22;36510;52.610;13.468;2022-11-04T03:34:15;10.80;41.10
50560;DHT22;36510;52.610;13.468;2022-11-04T03:39:06;10.60;41.80
50560;DHT22;36510;52.610;13.468;2022-11-04T03:43:57;10.60;42.20
50560;DHT22;36510;52.610;13.468;2022-11-04T03:48:47;10.60;42.90
50560;DHT22;36510;52.610;13.468;2022-11-04T03:53:40;10.60;42.90
50560;DHT22;36510;52.610;13.468;2022-11-04T03:58:38;10.50;44.30
50560;DHT22;36510;52.610;13.468;2022-11-04T04:03:34;10.00;47.40
50560;DHT22;36510;52.610;13.468;2022-11-04T04:08:37;10.00;48.80
50560;DHT22;36510;52.610;13.468;2022-11-04T04:18:56;10.30;49.20
50560;DHT22;36510;52.610;13.468;2022-11-04T04:23:50;10.50;47.90
50560;DHT22;36510;52.610;13.468;2022-11-04T04:29:00;10.70;46.30
50560;DHT22;36510;52.610;13.468;2022-11-04T04:33:52;10.80;45.30
50560;DHT22;36510;52.610;13.468;2022-11-04T04:38:44;10.90;45.00
50560;DHT22;36510;52.610;13.468;2022-11-04T04:43:53;11.00;45.10
50560;DHT22;36510;52.610;13.468;2022-11-04T04:49:06;11.10;44.70
50560;DHT22;36510;52.610;13.468;2022-11-04T04:53:57;11.10;43.50
50560;DHT22;36510;52.610;13.468;2022-11-04T04:58:48;11.10;44.00
50560;DHT22;36510;52.610;13.468;2022-11-04T05:03:38;11.20;43.20
50560;DHT22;36510;52.610;13.468;2022-11-04T05:08:29;11.20;42.70
50560;DHT22;36510;52.610;13.468;2022-11-04T05:13:19;11.30;42.60
50560;DHT22;36510;52.610;13.468;2022-11-04T05:18:16;11.30;42.60
50560;DHT22;36510;52.610;13.468;2022-11-04T05:23:07;11.30;42.70
50560;DHT22;36510;52.610;13.468;2022-11-04T05:28:01;11.30;43.10
50560;DHT22;36510;52.610;13.468;2022-11-04T05:32:51;11.30;42.90
50560;DHT22;36510;52.610;13.468;2022-11-04T05:37:42;11.30;42.80
50560;DHT22;36510;52.610;13.468;2022-11-04T05:42:32;11.30;43.10
50560;DHT22;36510;52.610;13.468;2022-11-04T05:47:23;11.20;43.80
50560;DHT22;36510;52.610;13.468;2022-11-04T05:52:13;11.20;44.10
50560;DHT22;36510;52.610;13.468;2022-11-04T05:57:04;11.30;44.10
50560;DHT22;36510;52.610;13.468;2022-11-04T06:01:55;11.30;43.70
50560;DHT22;36510;52.610;13.468;2022-11-04T06:06:45;11.40;43.30
50560;DHT22;36510;52.610;13.468;2022-11-04T06:11:36;11.40;43.00
50560;DHT22;36510;52.610;13.468;2022-11-04T06:16:27;11.50;42.60
50560;DHT22;36510;52.610;13.468;2022-11-04T06:21:22;11.50;42.60
50560;DHT22;36510;52.610;13.468;2022-11-04T06:26:14;11.40;43.50
50560;DHT22;36510;52.610;13.468;2022-11-04T06:31:08;11.30;45.40
50560;DHT22;36510;52.610;13.468;2022-11-04T06:36:00;11.30;46.50
50560;DHT22;36510;52.610;13.468;2022-11-04T06:40:51;11.10;48.40
50560;DHT22;36510;52.610;13.468;2022-11-04T06:45:41;10.90;50.50
50560;DHT22;36510;52.610;13.468;2022-11-04T06:50:32;11.00;51.30
50560;DHT22;36510;52.610;13.468;2022-11-04T06:55:22;11.10;51.30
50560;DHT22;36510;52.610;13.468;2022-11-04T07:00:13;11.20;50.50
50560;DHT22;36510;52.610;13.468;2022-11-04T07:05:04;11.40;49.80
50560;DHT22;36510;52.610;13.468;2022-11-04T07:09:55;11.50;48.90
50560;DHT22;36510;52.610;13.468;2022-11-04T07:14:46;11.50;48.20
50560;DHT22;36510;52.610;13.468;2022-11-04T07:19:36;11.60;48.60
50560;DHT22;36510;52.610;13.468;2022-11-04T07:24:27;11.60;48.90
50560;DHT22;36510;52.610;13.468;2022-11-04T07:29:17;11.60;49.30
50560;DHT22;36510;52.610;13.468;2022-11-04T07:34:08;11.70;49.60
50560;DHT22;36510;52.610;13.468;2022-11-04T07:38:58;11.70;49.30
50560;DHT22;36510;52.610;13.468;2022-11-04T07:43:51;11.80;49.30
50560;DHT22;36510;52.610;13.468;2022-11-04T07:48:41;11.90;49.50
50560;DHT22;36510;52.610;13.468;2022-11-04T07:53:32;11.80;50.60
50560;DHT22;36510;52.610;13.468;2022-11-04T07:58:23;11.80;50.90
50560;DHT22;36510;52.610;13.468;2022-11-04T08:03:15;11.90;51.70
50560;DHT22;36510;52.610;13.468;2022-11-04T08:08:05;12.00;53.10
50560;DHT22;36510;52.610;13.468;2022-11-04T08:12:57;12.10;52.80
50560;DHT22;36510;52.610;13.468;2022-11-04T08:17:47;12.20;53.00
50560;DHT22;36510;52.610;13.468;2022-11-04T08:22:38;12.30;54.70
50560;DHT22;36510;52.610;13.468;2022-11-04T08:27:28;12.30;55.20
50560;DHT22;36510;52.610;13.468;2022-11-04T08:32:19;12.40;56.40
50560;DHT22;36510;52.610;13.468;2022-11-04T08:37:13;12.50;57.30
50560;DHT22;36510;52.610;13.468;2022-11-04T08:42:07;12.40;58.90
50560;DHT22;36510;52.610;13.468;2022-11-04T08:46:59;12.40;59.90
50560;DHT22;36510;52.610;13.468;2022-11-04T08:51:49;12.40;61.00
50560;DHT22;36510;52.610;13.468;2022-11-04T08:56:45;12.40;62.10
50560;DHT22;36510;52.610;13.468;2022-11-04T09:01:36;12.40;63.20
50560;DHT22;36510;52.610;13.468;2022-11-04T09:06:30;12.50;62.80
50560;DHT22;36510;52.610;13.468;2022-11-04T09:11:22;12.50;63.30
50560;DHT22;36510;52.610;13.468;2022-11-04T09:16:14;12.60;63.30
50560;DHT22;36510;52.610;13.468;2022-11-04T09:21:06;12.60;63.40
50560;DHT22;36510;52.610;13.468;2022-11-04T09:26:06;12.70;63.40
50560;DHT22;36510;52.610;13.468;2022-11-04T09:30:57;12.70;62.20
50560;DHT22;36510;52.610;13.468;2022-11-04T09:35:55;12.80;61.50
50560;DHT22;36510;52.610;13.468;2022-11-04T09:40:47;12.90;61.90
50560;DHT22;36510;52.610;13.468;2022-11-04T09:45:41;12.90;61.50
50560;DHT22;36510;52.610;13.468;2022-11-04T09:50:44;13.00;60.90
50560;DHT22;36510;52.610;13.468;2022-11-04T09:55:37;13.10;60.40
50560;DHT22;36510;52.610;13.468;2022-11-04T10:00:32;13.20;59.70
50560;DHT22;36510;52.610;13.468;2022-11-04T10:16:26;13.20;58.90
50560;DHT22;36510;52.610;13.468;2022-11-04T10:22:02;13.20;58.70
50560;DHT22;36510;52.610;13.468;2022-11-04T10:31:23;13.20;58.80
50560;DHT22;36510;52.610;13.468;2022-11-04T10:36:15;13.20;58.20
50560;DHT22;36510;52.610;13.468;2022-11-04T10:41:21;13.20;58.20
50560;DHT22;36510;52.610;13.468;2022-11-04T10:51:19;13.30;57.80
50560;DHT22;36510;52.610;13.468;2022-11-04T10:56:18;13.30;58.70
50560;DHT22;36510;52.610;13.468;2022-11-04T11:01:27;13.30;59.60
50560;DHT22;36510;52.610;13.468;2022-11-04T11:11:15;13.40;59.80
50560;DHT22;36510;52.610;13.468;2022-11-04T11:16:18;13.40;58.90
50560;DHT22;36510;52.610;13.468;2022-11-04T11:21:14;13.50;58.40
50560;DHT22;36510;52.610;13.468;2022-11-04T11:26:11;13.50;57.80
50560;DHT22;36510;52.610;13.468;2022-11-04T11:31:22;13.50;57.00
50560;DHT22;36510;52.610;13.468;2022-11-04T11:36:22;13.60;55.80
50560;DHT22;36510;52.610;13.468;2022-11-04T11:41:14;13.50;56.00
50560;DHT22;36510;52.610;13.468;2022-11-04T11:46:12;13.50;56.20
50560;DHT22;36510;52.610;13.468;2022-11-04T11:51:03;13.50;56.50
50560;DHT22;36510;52.610;13.468;2022-11-04T12:01:21;13.40;56.50
50560;DHT22;36510;52.610;13.468;2022-11-04T12:06:35;13.40;56.20
50560;DHT22;36510;52.610;13.468;2022-11-04T12:21:26;13.40;56.20
50560;DHT22;36510;52.610;13.468;2022-11-04T12:31:49;13.40;56.00
50560;DHT22;36510;52.610;13.468;2022-11-04T12:37:03;13.40;55.80
50560;DHT22;36510;52.610;13.468;2022-11-04T12:42:57;13.40;55.50
50560;DHT22;36510;52.610;13.468;2022-11-04T12:47:33;13.40;55.50
50560;DHT22;36510;52.610;13.468;2022-11-04T12:57:33;13.40;55.20
50560;DHT22;36510;52.610;13.468;2022-11-04T13:02:45;13.50;55.30
50560;DHT22;36510;52.610;13.468;2022-11-04T13:07:53;13.50;55.10
50560;DHT22;36510;52.610;13.468;2022-11-04T13:12:47;13.50;55.20
50560;DHT22;36510;52.610;13.468;2022-11-04T13:17:40;13.50;55.00
50560;DHT22;36510;52.610;13.468;2022-11-04T13:22:35;13.40;54.80
50560;DHT22;36510;52.610;13.468;2022-11-04T13:27:34;13.40;55.10
50560;DHT22;36510;52.610;13.468;2022-11-04T13:32:47;13.50;55.00
50560;DHT22;36510;52.610;13.468;2022-11-04T13:37:51;13.40;54.90
50560;DHT22;36510;52.610;13.468;2022-11-04T13:47:53;13.30;55.40
50560;DHT22;36510;52.610;13.468;2022-11-04T13:52:48;13.30;55.30
50560;DHT22;36510;52.610;13.468;2022-11-04T13:57:54;13.40;55.30
50560;DHT22;36510;52.610;13.468;2022-11-04T14:12:52;13.40;55.50
50560;DHT22;36510;52.610;13.468;2022-11-04T14:22:48;13.30;56.00
50560;DHT22;36510;52.610;13.468;2022-11-04T14:27:40;13.30;55.90
50560;DHT22;36510;52.610;13.468;2022-11-04T14:32:36;13.10;57.30
50560;DHT22;36510;52.610;13.468;2022-11-04T14:37:34;13.20;57.00
50560;DHT22;36510;52.610;13.468;2022-11-04T14:42:55;13.20;57.10
50560;DHT22;36510;52.610;13.468;2022-11-04T14:47:50;13.30;58.50
50560;DHT22;36510;52.610;13.468;2022-11-04T14:57:40;13.30;59.00
50560;DHT22;36510;52.610;13.468;2022-11-04T15:02:31;13.20;57.60
50560;DHT22;36510;52.610;13.468;2022-11-04T15:12:20;13.20;60.40
50560;DHT22;36510;52.610;13.468;2022-11-04T15:17:31;13.10;60.50
50560;DHT22;36510;52.610;13.468;2022-11-04T15:22:23;13.10;60.80
50560;DHT22;36510;52.610;13.468;2022-11-04T15:27:18;13.00;60.40
50560;DHT22;36510;52.610;13.468;2022-11-04T15:32:15;13.00;60.30
50560;DHT22;36510;52.610;13.468;2022-11-04T15:37:07;12.90;60.80
50560;DHT22;36510;52.610;13.468;2022-11-04T15:42:01;12.90;60.50
50560;DHT22;36510;52.610;13.468;2022-11-04T15:47:25;12.90;60.30
50560;DHT22;36510;52.610;13.468;2022-11-04T15:52:20;12.80;60.80
50560;DHT22;36510;52.610;13.468;2022-11-04T15:57:24;12.80;62.40
50560;DHT22;36510;52.610;13.468;2022-11-04T16:02:28;12.70;61.80
50560;DHT22;36510;52.610;13.468;2022-11-04T16:07:22;12.80;60.20
50560;DHT22;36510;52.610;13.468;2022-11-04T16:12:15;12.90;58.90
50560;DHT22;36510;52.610;13.468;2022-11-04T16:17:09;12.90;58.80
50560;DHT22;36510;52.610;13.468;2022-11-04T16:22:07;12.90;58.40
50560;DHT22;36510;52.610;13.468;2022-11-04T16:26:59;13.00;57.90
50560;DHT22;36510;52.610;13.468;2022-11-04T16:32:05;12.90;57.60
50560;DHT22;36510;52.610;13.468;2022-11-04T16:36:59;13.00;57.70
50560;DHT22;36510;52.610;13.468;2022-11-04T16:41:49;12.90;57.10
50560;DHT22;36510;52.610;13.468;2022-11-04T16:46:40;12.90;57.20
50560;DHT22;36510;52.610;13.468;2022-11-04T16:51:32;12.90;57.30
50560;DHT22;36510;52.610;13.468;2022-11-04T16:56:23;12.90;57.60
50560;DHT22;36510;52.610;13.468;2022-11-04T17:01:14;12.90;57.30
50560;DHT22;36510;52.610;13.468;2022-11-04T17:06:05;12.90;57.10
50560;DHT22;36510;52.610;13.468;2022-11-04T17:10:56;12.90;56.70
50560;DHT22;36510;52.610;13.468;2022-11-04T17:15:46;13.00;56.60
50560;DHT22;36510;52.610;13.468;2022-11-04T17:20:39;13.00;56.30
50560;DHT22;36510;52.610;13.468;2022-11-04T17:25:30;13.00;56.20
50560;DHT22;36510;52.610;13.468;2022-11-04T17:30:40;13.00;55.90
50560;DHT22;36510;52.610;13.468;2022-11-04T17:35:38;13.10;55.70
50560;DHT22;36510;52.610;13.468;2022-11-04T17:40:39;13.10;55.70
50560;DHT22;36510;52.610;13.468;2022-11-04T17:45:48;13.00;55.40
50560;DHT22;36510;52.610;13.468;2022-11-04T17:50:58;13.10;55.50
50560;DHT22;36510;52.610;13.468;2022-11-04T17:55:49;13.00;55.30
50560;DHT22;36510;52.610;13.468;2022-11-04T18:00:40;13.00;55.90
50560;DHT22;36510;52.610;13.468;2022-11-04T18:05:37;13.00;55.60
50560;DHT22;36510;52.610;13.468;2022-11-04T18:10:27;13.00;55.60
50560;DHT22;36510;52.610;13.468;2022-11-04T18:15:21;13.00;55.30
50560;DHT22;36510;52.610;13.468;2022-11-04T18:20:13;13.00;55.20
50560;DHT22;36510;52.610;13.468;2022-11-04T18:25:05;13.00;55.30
50560;DHT22;36510;52.610;13.468;2022-11-04T18:29:59;13.00;54.80
50560;DHT22;36510;52.610;13.468;2022-11-04T18:34:49;13.00;54.90
50560;DHT22;36510;52.610;13.468;2022-11-04T18:39:41;13.00;54.80
50560;DHT22;36510;52.610;13.468;2022-11-04T18:44:32;13.00;54.70
50560;DHT22;36510;52.610;13.468;2022-11-04T18:49:23;13.00;54.40
50560;DHT22;36510;52.610;13.468;2022-11-04T18:55:02;13.00;54.60
50560;DHT22;36510;52.610;13.468;2022-11-04T18:59:40;13.00;54.40
50560;DHT22;36510;52.610;13.468;2022-11-04T19:04:31;13.00;54.40
50560;DHT22;36510;52.610;13.468;2022-11-04T19:09:22;13.00;54.40
50560;DHT22;36510;52.610;13.468;2022-11-04T19:14:14;13.00;54.30
50560;DHT22;36510;52.610;13.468;2022-11-04T19:19:06;13.00;54.10
50560;DHT22;36510;52.610;13.468;2022-11-04T19:23:57;12.90;53.80
50560;DHT22;36510;52.610;13.468;2022-11-04T19:28:49;13.00;53.80
50560;DHT22;36510;52.610;13.468;2022-11-04T19:33:40;13.00;54.10
50560;DHT22;36510;52.610;13.468;2022-11-04T19:38:31;13.00;54.20
50560;DHT22;36510;52.610;13.468;2022-11-04T19:43:22;12.90;54.50
50560;DHT22;36510;52.610;13.468;2022-11-04T19:48:13;12.90;54.90
50560;DHT22;36510;52.610;13.468;2022-11-04T19:53:04;12.90;55.20
50560;DHT22;36510;52.610;13.468;2022-11-04T19:57:54;12.90;55.30
50560;DHT22;36510;52.610;13.468;2022-11-04T20:02:45;12.90;54.70
50560;DHT22;36510;52.610;13.468;2022-11-04T20:07:35;12.90;54.70
50560;DHT22;36510;52.610;13.468;2022-11-04T20:12:30;12.80;55.50
50560;DHT22;36510;52.610;13.468;2022-11-04T20:17:39;12.80;54.80
50560;DHT22;36510;52.610;13.468;2022-11-04T20:22:30;12.70;55.10
50560;DHT22;36510;52.610;13.468;2022-11-04T20:27:21;12.50;55.40
50560;DHT22;36510;52.610;13.468;2022-11-04T20:32:11;12.40;56.20
50560;DHT22;36510;52.610;13.468;2022-11-04T20:37:02;12.40;56.80
50560;DHT22;36510;52.610;13.468;2022-11-04T20:41:52;12.50;56.70
50560;DHT22;36510;52.610;13.468;2022-11-04T20:46:43;12.40;56.00
50560;DHT22;36510;52.610;13.468;2022-11-04T20:51:35;12.50;56.30
50560;DHT22;36510;52.610;13.468;2022-11-04T20:56:33;12.50;56.30
50560;DHT22;36510;52.610;13.468;2022-11-04T21:01:26;12.50;56.00
50560;DHT22;36510;52.610;13.468;2022-11-04T21:06:17;12.50;56.00
50560;DHT22;36510;52.610;13.468;2022-11-04T21:11:09;12.50;55.90
50560;DHT22;36510;52.610;13.468;2022-11-04T21:16:00;12.50;55.50
50560;DHT22;36510;52.610;13.468;2022-11-04T21:20:51;12.60;55.20
50560;DHT22;36510;52.610;13.468;2022-11-04T21:25:57;12.50;55.10
50560;DHT22;36510;52.610;13.468;2022-11-04T21:30:50;12.60;55.20
50560;DHT22;36510;52.610;13.468;2022-11-04T21:35:41;12.60;54.50
50560;DHT22;36510;52.610;13.468;2022-11-04T21:40:33;12.60;54.70
50560;DHT22;36510;52.610;13.468;2022-11-04T21:45:24;12.60;54.90
50560;DHT22;36510;52.610;13.468;2022-11-04T21:50:15;12.70;54.90
50560;DHT22;36510;52.610;13.468;2022-11-04T21:55:06;12.70;54.30
50560;DHT22;36510;52.610;13.468;2022-11-04T21:59:57;12.70;54.30
50560;DHT22;36510;52.610;13.468;2022-11-04T22:04:47;12.60;54.30
50560;DHT22;36510;52.610;13.468;2022-11-04T22:09:38;12.70;54.50
50560;DHT22;36510;52.610;13.468;2022-11-04T22:14:28;12.60;54.30
50560;DHT22;36510;52.610;13.468;2022-11-04T22:19:19;12.60;54.50
50560;DHT22;36510;52.610;13.468;2022-11-04T22:24:11;12.60;55.20
50560;DHT22;36510;52.610;13.468;2022-11-04T22:29:02;12.60;56.90
50560;DHT22;36510;52.610;13.468;2022-11-04T22:33:53;12.60;57.60
50560;DHT22;36510;52.610;13.468;2022-11-04T22:38:43;12.50;57.80
50560;DHT22;36510;52.610;13.468;2022-11-04T22:43:34;12.50;57.10
50560;DHT22;36510;52.610;13.468;2022-11-04T22:48:25;12.20;57.50
50560;DHT22;36510;52.610;13.468;2022-11-04T22:53:15;12.20;58.70
50560;DHT22;36510;52.610;13.468;2022-11-04T22:58:06;12.20;59.30
50560;DHT22;36510;52.610;13.468;2022-11-04T23:02:56;12.20;59.00
50560;DHT22;36510;52.610;13.468;2022-11-04T23:07:47;12.30;58.40
50560;DHT22;36510;52.610;13.468;2022-11-04T23:12:37;12.30;57.50
50560;DHT22;36510;52.610;13.468;2022-11-04T23:17:47;12.30;57.90
50560;DHT22;36510;52.610;13.468;2022-11-04T23:22:56;12.40;57.80
50560;DHT22;36510;52.610;13.468;2022-11-04T23:28:05;12.40;57.60
50560;DHT22;36510;52.610;13.468;2022-11-04T23:33:14;12.40;57.60
50560;DHT22;36510;52.610;13.468;2022-11-04T23:38:04;12.50;57.40
50560;DHT22;36510;52.610;13.468;2022-11-04T23:42:55;12.50;56.70
50560;DHT22;36510;52.610;13.468;2022-11-04T23:47:46;12.50;56.50
50560;DHT22;36510;52.610;13.468;2022-11-04T23:52:55;12.40;56.50
50560;DHT22;36510;52.610;13.468;2022-11-04T23:58:06;12.50;56.30
